Terminal Aerodrome Forecast
Issued by NWS

Home | Current Version | Previous Version | Text Only | Print | Product List | Glossary On
Versions: 1 2 3 4 5 6 7 8 9 10 11 12 13 14
000
FTAK31 PANC 120545
TAFAIL
TAF
PAIL 120545Z 1206/1306 09020G28KT P6SM -RA BKN020 OVC050
      WS020/12050KT
     FM121200 09023G32KT P6SM VCSH BKN050 OVC100=

USA.gov is the U.S. government's official web portal to all federal, state and local government web resources and services.